UNNTUNBB

Guest
Details From UNNT - Novosibirsk Tolmachevo
To UNBB - BARNAUL
Flight Number -
Tags generated
Created
Modified
Stats Distance 104 nm / 192 km
Max Altitude 0 ft / 0 m
Waypoints 2
Social Downloads 2
Likes 0
Share VATSIM

Download

Looking for another format? Having issues loading an existing format? Contact us
Advertisement - Login to hide

Notes

Basic altitude profile: - Ascent Rate: 2500ft/min - Ascent Speed: 250kts - Cruise Altitude: 35000ft - Cruise Speed: 420kts - Descent Rate: 1500ft/min - Descent Speed: 250kts

Route

UNNT UNBB

ID Type Via Altitude Latitude Longitude Leg Dist Tot Dist Heading (true) Name
O UNNT APT - 0 ft / 0 m 55.01302˚ 82.65107˚ - 0 nm - Novosibirsk Tolmachevo
O UNBB APT - 0 ft / 0 m 53.36377˚ 83.53853˚ 103 nm 103 nm 162° / 163° BARNAUL

Altitude Profile

Advertisement - Login to hide

UNNT

Details ICAO UNNT (OVB)
Name Novosibirsk Tolmachevo
Region Russia
Timezone Asia/Novosibirsk (UTC+7.0)
Stats Elevation 365 ft / 111 m (AMSL)
Location 55.013017° 82.651065°
Runways 2
Magnetic Variation 8.864° E

METAR

UNNT 141900Z 18002MPS 7000 OVC005 M20/M23 Q1051 R07/490155 R34/490340 NOSIG RMK QBB160 QFE778/1037

Decode

TAF

TAF UNNT 141700Z 1418/1518 22003MPS 3100 -SN BR OVC003 TEMPO 1418/1505 0350 FZFG OVC001 FM150500 19003G08MPS 9999 BKN020

Decode

Departure Runways

ID Width Length Bearing (true) Bearing (mag) Surface Threshold Offset Overrun Length
07 190 ft / 58 m 11,817 ft / 3,602 m 81.00° 72.14° Asphalt 0 ft / 0 m 250 ft / 76 m
07L 304 ft / 93 m 9,877 ft / 3,011 m 81.01° 72.15° Grass 0 ft / 0 m 0 ft / 0 m
25 190 ft / 58 m 11,817 ft / 3,602 m 261.04° 252.18° Asphalt 0 ft / 0 m 225 ft / 69 m
25R 304 ft / 93 m 9,877 ft / 3,011 m 261.05° 252.19° Grass 0 ft / 0 m 0 ft / 0 m

UNBB

Details ICAO UNBB (BAX)
Name BARNAUL
Region Russia
Timezone Asia/Omsk (UTC+6.0)
Stats Elevation 838 ft / 255 m (AMSL)
Location 53.363774° 83.538533°
Runways 1
Magnetic Variation 7.618° E

METAR

UNBB 141900Z 00000MPS 9000 SCT011 M19/M22 Q1049 R06/450350 NOSIG RMK QFE764

Decode

TAF

TAF UNBB 141700Z 1418/1518 20003MPS 3100 BR SCT011 TEMPO 1418/1506 0300 -SN FZFG SCT001 BKN005 TEMPO 1506/1518 1200 BR FU SCT003 SCT011

Decode

Destination Runways

ID Width Length Bearing (true) Bearing (mag) Surface Threshold Offset Overrun Length
06 164 ft / 50 m 9,340 ft / 2,847 m 67.18° 59.56° Concrete 1,148 ft / 350 m 160 ft / 49 m
24 164 ft / 50 m 9,340 ft / 2,847 m 247.21° 239.59° Concrete 0 ft / 0 m 160 ft / 49 m

Approach Navaids

Runway Type Ident Frequency Range Bearing (true) Bearing (mag) Slope Elevation
06 Localiser IBU 110.30 MHz 18 nm / 33 km 64.62° 57.00° - 838 ft / 255 m (AMSL)
06 Glidescope IBU 110.30 MHz 10 nm / 19 km 67.20° 59.58° 2.70° 838 ft / 255 m (AMSL)
24 Localiser IAR 108.70 MHz 18 nm / 33 km 245.74° 238.12° - 838 ft / 255 m (AMSL)
24 Glidescope IAR 108.70 MHz 10 nm / 19 km 247.20° 239.58° 2.70° 838 ft / 255 m (AMSL)

Popular Alternatives